Time;durP1;ratioP1;P1;durP2;ratioP2;P2;SDS_P1;SDS_P2;PMS_P1;PMS_P2;Temp;Humidity;BMP_temperature;BMP_pressure;BME280_temperature;BME280_humidity;BME280_pressure;Samples;Min_cycle;Max_cycle;Signal;HPM_P1;HPM_P2
2022/12/09 00:04:26;;;;;;;8.70;5.33;;;;;;;-145.68;100.00;63218.00;10451160;28;20218;-81
2022/12/09 00:09:27;;;;;;;8.30;5.97;;;;;;;-145.68;100.00;63218.00;10450630;28;20603;-81
2022/12/09 00:14:27;;;;;;;8.67;6.17;;;;;;;-145.68;100.00;63218.00;10432100;28;20198;-82
2022/12/09 00:19:28;;;;;;;7.30;6.20;;;;;;;-145.68;100.00;63218.00;10450957;28;20210;-81
2022/12/09 00:24:28;;;;;;;9.10;6.83;;;;;;;-145.68;100.00;63218.00;10450202;28;20228;-81
2022/12/09 00:29:29;;;;;;;10.43;7.50;;;;;;;-145.68;100.00;63218.00;10450662;28;20194;-80
2022/12/09 00:34:29;;;;;;;10.73;6.73;;;;;;;-145.68;100.00;63218.00;10416438;28;20203;-80
2022/12/09 00:39:29;;;;;;;13.27;7.80;;;;;;;-145.68;100.00;63218.00;10432115;28;20211;-81
2022/12/09 00:44:30;;;;;;;9.00;7.13;;;;;;;-145.68;100.00;63218.00;10431838;28;20323;-82
2022/12/09 00:49:30;;;;;;;12.30;7.30;;;;;;;-145.68;100.00;63218.00;10415449;28;20192;-82
2022/12/09 00:54:30;;;;;;;11.57;7.07;;;;;;;-145.68;100.00;63218.00;10432555;28;20195;-81
2022/12/09 00:59:31;;;;;;;10.97;7.87;;;;;;;-145.68;100.00;63218.00;10415609;28;20789;-81
2022/12/09 01:04:31;;;;;;;10.07;7.27;;;;;;;-145.68;100.00;63218.00;10449886;28;20251;-80
2022/12/09 01:09:33;;;;;;;11.50;7.43;;;;;;;-145.68;100.00;63218.00;10415229;28;20695;-80
2022/12/09 01:14:33;;;;;;;12.00;7.70;;;;;;;-145.68;100.00;63218.00;10431457;28;20226;-81
2022/12/09 01:19:34;;;;;;;11.73;7.90;;;;;;;-145.68;100.00;63218.00;10449751;28;20716;-79
2022/12/09 01:24:34;;;;;;;10.87;7.73;;;;;;;-145.68;100.00;63218.00;10452032;28;20667;-81
2022/12/09 01:29:35;;;;;;;12.60;8.20;;;;;;;-145.68;100.00;63218.00;10457059;28;20200;-81
2022/12/09 01:34:36;;;;;;;13.97;9.13;;;;;;;-145.68;100.00;63218.00;10431342;28;20198;-81
2022/12/09 01:39:37;;;;;;;11.63;7.87;;;;;;;-145.68;100.00;63218.00;10438168;28;20298;-81
2022/12/09 01:44:37;;;;;;;12.50;8.40;;;;;;;-145.68;100.00;63218.00;10437909;28;20676;-80
2022/12/09 01:49:45;;;;;;;11.80;8.67;;;;;;;-145.68;100.00;63218.00;10456087;28;20325;-81
2022/12/09 01:54:46;;;;;;;11.97;7.97;;;;;;;-145.68;100.00;63218.00;10438553;28;20539;-81
2022/12/09 01:59:48;;;;;;;9.03;6.93;;;;;;;-145.68;100.00;63218.00;10437072;28;20282;-81
2022/12/09 02:04:49;;;;;;;10.70;7.67;;;;;;;-145.68;100.00;63218.00;10455199;28;20230;-82
2022/12/09 02:09:51;;;;;;;12.10;7.57;;;;;;;-145.68;100.00;63218.00;10437281;28;20260;-80
2022/12/09 02:15:04;;;;;;;12.93;7.63;;;;;;;-145.68;100.00;63218.00;10438059;28;20299;-81
2022/12/09 02:20:32;;;;;;;12.17;8.03;;;;;;;-145.68;100.00;63218.00;10421294;28;20300;-81
2022/12/09 02:25:42;;;;;;;10.80;7.93;;;;;;;-145.68;100.00;63218.00;10420120;28;20236;-81
2022/12/09 02:30:57;;;;;;;12.63;8.27;;;;;;;-145.68;100.00;63218.00;10437334;28;20191;-80
2022/12/09 02:36:02;;;;;;;13.37;8.90;;;;;;;-145.68;100.00;63218.00;10454067;28;20195;-81
2022/12/09 02:41:10;;;;;;;18.70;11.60;;;;;;;-145.68;100.00;63218.00;10436530;28;20212;-81
2022/12/09 02:46:15;;;;;;;13.43;8.63;;;;;;;-145.68;100.00;63218.00;10419837;28;20219;-79
2022/12/09 02:51:18;;;;;;;13.87;9.63;;;;;;;-145.68;100.00;63218.00;10435819;28;20187;-80
2022/12/09 02:56:19;;;;;;;16.13;10.67;;;;;;;-145.68;100.00;63218.00;10436445;28;20212;-82
2022/12/09 03:01:22;;;;;;;15.80;10.90;;;;;;;-145.68;100.00;63218.00;10419832;28;20564;-80
2022/12/09 03:06:26;;;;;;;15.43;10.47;;;;;;;-145.68;100.00;63218.00;10453321;28;20220;-82
2022/12/09 03:11:27;;;;;;;14.40;10.10;;;;;;;-145.68;100.00;63218.00;10419227;28;20202;-81
2022/12/09 03:16:46;;;;;;;16.07;9.83;;;;;;;-145.68;100.00;63218.00;10435471;28;20625;-80
2022/12/09 03:21:48;;;;;;;15.37;9.37;;;;;;;-145.68;100.00;63218.00;10433053;28;20257;-80
2022/12/09 03:26:49;;;;;;;15.50;10.23;;;;;;;-145.68;100.00;63218.00;10433282;28;20331;-80
2022/12/09 03:31:50;;;;;;;14.67;9.60;;;;;;;-145.68;100.00;63218.00;10433505;28;20194;-80
2022/12/09 03:36:51;;;;;;;13.90;9.57;;;;;;;-145.68;100.00;63218.00;10433113;28;20208;-80
2022/12/09 03:41:57;;;;;;;14.30;10.10;;;;;;;-145.68;100.00;63218.00;10432930;28;20628;-80
2022/12/09 03:46:58;;;;;;;16.50;9.30;;;;;;;-145.68;100.00;63218.00;10432007;28;20384;-80
2022/12/09 03:52:29;;;;;;;10.90;7.73;;;;;;;-145.68;100.00;63218.00;10432816;28;20192;-80
2022/12/09 03:57:31;;;;;;;12.00;7.87;;;;;;;-145.68;100.00;63218.00;10421853;28;20196;-80
2022/12/09 04:02:31;;;;;;;13.03;8.33;;;;;;;-145.68;100.00;63218.00;10431846;28;20191;-80
2022/12/09 04:07:32;;;;;;;16.00;9.77;;;;;;;-145.68;100.00;63218.00;10429534;28;20722;-80
2022/12/09 04:12:33;;;;;;;13.87;9.60;;;;;;;-145.68;100.00;63218.00;10428094;28;20203;-80
2022/12/09 04:17:33;;;;;;;13.73;9.30;;;;;;;-145.68;100.00;63218.00;10446786;28;20207;-79
2022/12/09 04:22:33;;;;;;;11.10;8.17;;;;;;;-145.68;100.00;63218.00;10446198;28;20207;-79
2022/12/09 04:27:34;;;;;;;17.60;10.87;;;;;;;-145.68;100.00;63218.00;10412248;28;20244;-79
2022/12/09 04:32:34;;;;;;;16.40;10.43;;;;;;;-145.68;100.00;63218.00;10428170;28;20215;-79
2022/12/09 04:37:36;;;;;;;14.73;9.73;;;;;;;-145.68;100.00;63218.00;10445909;28;20217;-80
2022/12/09 04:42:36;;;;;;;13.50;8.57;;;;;;;-145.68;100.00;63218.00;10445081;28;20196;-79
2022/12/09 04:47:37;;;;;;;11.70;8.47;;;;;;;-145.68;100.00;63218.00;10445174;28;20293;-79
2022/12/09 04:52:37;;;;;;;16.73;10.37;;;;;;;-145.68;100.00;63218.00;10445599;28;20279;-79
2022/12/09 04:57:37;;;;;;;15.70;10.20;;;;;;;-145.68;100.00;63218.00;10446191;28;20191;-79
2022/12/09 05:02:38;;;;;;;16.87;9.80;;;;;;;-145.68;100.00;63218.00;10455710;28;20206;-79
2022/12/09 05:07:38;;;;;;;16.07;9.37;;;;;;;-145.68;100.00;63218.00;10457626;28;20227;-79
2022/12/09 05:12:38;;;;;;;13.50;9.13;;;;;;;-145.68;100.00;63218.00;10458021;28;20225;-79
2022/12/09 05:17:39;;;;;;;14.00;8.83;;;;;;;-145.68;100.00;63218.00;10456736;28;20241;-79
2022/12/09 05:22:39;;;;;;;13.20;7.80;;;;;;;-145.68;100.00;63218.00;10457262;28;20199;-78
2022/12/09 05:27:40;;;;;;;10.40;7.60;;;;;;;-145.68;100.00;63218.00;10457173;28;20595;-79
2022/12/09 05:32:40;;;;;;;11.47;7.77;;;;;;;-145.68;100.00;63218.00;10456540;28;20198;-78
2022/12/09 05:37:40;;;;;;;11.67;7.90;;;;;;;-145.68;100.00;63218.00;10457073;28;20734;-78
2022/12/09 05:42:41;;;;;;;11.67;6.87;;;;;;;-145.68;100.00;63218.00;10456071;28;20188;-78
2022/12/09 05:47:41;;;;;;;12.43;7.80;;;;;;;-145.68;100.00;63218.00;10437833;28;20224;-79
2022/12/09 05:52:41;;;;;;;66.17;31.00;;;;;;;-145.68;100.00;63218.00;10455866;28;20196;-79
2022/12/09 05:57:42;;;;;;;11.93;7.37;;;;;;;-145.68;100.00;63218.00;10455559;28;20185;-78
2022/12/09 06:02:42;;;;;;;11.37;8.10;;;;;;;-145.68;100.00;63218.00;10455548;28;20192;-78
2022/12/09 06:07:43;;;;;;;13.10;7.40;;;;;;;-145.68;100.00;63218.00;10454995;28;20801;-78
2022/12/09 06:12:43;;;;;;;30.73;15.17;;;;;;;-145.68;100.00;63218.00;10454259;28;20187;-78
2022/12/09 06:17:43;;;;;;;33.23;15.77;;;;;;;-145.68;100.00;63218.00;10454539;28;20184;-78
2022/12/09 06:22:44;;;;;;;37.40;19.60;;;;;;;-145.68;100.00;63218.00;10455041;28;20647;-78
2022/12/09 06:27:44;;;;;;;19.00;12.70;;;;;;;-145.68;100.00;63218.00;10454226;28;20737;-78
2022/12/09 06:32:45;;;;;;;10.43;6.43;;;;;;;-145.68;100.00;63218.00;10454346;28;20195;-78
2022/12/09 06:37:45;;;;;;;11.87;8.03;;;;;;;-145.68;100.00;63218.00;10453919;28;20265;-78
2022/12/09 06:42:45;;;;;;;11.67;7.13;;;;;;;-145.68;100.00;63218.00;10453868;28;20188;-79
2022/12/09 06:47:46;;;;;;;11.83;8.17;;;;;;;-145.68;100.00;63218.00;10453232;28;20980;-78
2022/12/09 06:52:46;;;;;;;10.63;7.27;;;;;;;-145.68;100.00;63218.00;10453683;28;20206;-78
2022/12/09 06:57:47;;;;;;;13.63;6.80;;;;;;;-145.68;100.00;63218.00;10453317;28;20194;-78
2022/12/09 07:02:47;;;;;;;10.83;6.63;;;;;;;-145.68;100.00;63218.00;10448337;28;20211;-78
2022/12/09 07:07:51;;;;;;;12.13;8.00;;;;;;;-145.68;100.00;63218.00;10435493;28;20699;-78
2022/12/09 07:12:51;;;;;;;10.17;6.53;;;;;;;-145.68;100.00;63218.00;10452578;28;20253;-79
2022/12/09 07:17:52;;;;;;;9.63;6.73;;;;;;;-145.68;100.00;63218.00;10452967;28;20249;-79
2022/12/09 07:22:52;;;;;;;7.43;5.90;;;;;;;-145.68;100.00;63218.00;10452341;28;20695;-79
2022/12/09 07:27:52;;;;;;;10.23;7.10;;;;;;;-145.68;100.00;63218.00;10451814;28;20230;-78
2022/12/09 07:32:53;;;;;;;8.57;5.90;;;;;;;-145.68;100.00;63218.00;10452456;28;20678;-78
2022/12/09 07:37:54;;;;;;;9.43;6.03;;;;;;;-145.68;100.00;63218.00;10451803;28;20620;-79
2022/12/09 07:42:55;;;;;;;6.43;5.07;;;;;;;-145.68;100.00;63218.00;10451330;28;20261;-78
2022/12/09 07:47:55;;;;;;;8.40;5.87;;;;;;;-145.68;100.00;63218.00;10416822;28;20218;-78
2022/12/09 07:52:57;;;;;;;7.90;5.73;;;;;;;-145.68;100.00;63218.00;10451474;28;20188;-78
2022/12/09 07:57:57;;;;;;;8.00;5.93;;;;;;;-145.68;100.00;63218.00;10446330;28;20233;-79
2022/12/09 08:02:58;;;;;;;8.00;6.13;;;;;;;-145.68;100.00;63218.00;10442235;28;20234;-78
2022/12/09 08:07:58;;;;;;;8.00;5.67;;;;;;;-145.68;100.00;63218.00;10448697;28;20243;-78
2022/12/09 08:12:58;;;;;;;6.73;5.30;;;;;;;-145.68;100.00;63218.00;10430524;28;20192;-78
2022/12/09 08:17:59;;;;;;;6.87;5.43;;;;;;;-145.68;100.00;63218.00;10431684;28;20180;-78
2022/12/09 08:22:59;;;;;;;6.53;4.43;;;;;;;-145.68;100.00;63218.00;10430527;28;20188;-78
2022/12/09 08:28:00;;;;;;;5.80;3.90;;;;;;;-145.68;100.00;63218.00;10436417;28;20228;-77
2022/12/09 08:33:00;;;;;;;5.10;3.80;;;;;;;-145.68;100.00;63218.00;10431543;28;20206;-77
2022/12/09 08:38:00;;;;;;;5.33;3.70;;;;;;;-145.68;100.00;63218.00;10437693;28;20215;-77
2022/12/09 08:43:05;;;;;;;4.00;3.60;;;;;;;-145.68;100.00;63218.00;10421129;28;20188;-77
2022/12/09 08:48:06;;;;;;;54.77;25.83;;;;;;;-145.68;100.00;63218.00;10438580;28;20269;-77
2022/12/09 08:53:07;;;;;;;11.93;9.90;;;;;;;-145.68;100.00;63218.00;10462666;28;20202;-77
2022/12/09 08:58:07;;;;;;;8.53;7.73;;;;;;;-145.68;100.00;63218.00;10460927;28;20928;-77
2022/12/09 09:03:07;;;;;;;10.33;4.43;;;;;;;-145.68;100.00;63218.00;10461732;28;20195;-77
2022/12/09 09:08:08;;;;;;;6.30;4.27;;;;;;;-145.68;100.00;63218.00;10444250;28;20245;-78
2022/12/09 09:13:08;;;;;;;5.80;4.30;;;;;;;-145.68;100.00;63218.00;10443940;28;20196;-77
2022/12/09 09:18:09;;;;;;;6.70;5.80;;;;;;;-145.68;100.00;63218.00;10443243;28;20673;-78
2022/12/09 09:23:09;;;;;;;5.23;4.00;;;;;;;-145.68;100.00;63218.00;10443863;28;20188;-78
2022/12/09 09:28:09;;;;;;;6.00;4.40;;;;;;;-145.68;100.00;63218.00;10464203;28;20236;-78
2022/12/09 09:33:10;;;;;;;10.70;6.93;;;;;;;-145.68;100.00;63218.00;10459411;28;20562;-74
2022/12/09 09:38:10;;;;;;;14.23;8.23;;;;;;;-145.68;100.00;63218.00;10433950;28;20679;-75
2022/12/09 09:43:15;;;;;;;14.37;9.80;;;;;;;-145.68;100.00;63218.00;10459829;28;20204;-75
2022/12/09 09:48:18;;;;;;;15.13;11.70;;;;;;;-145.68;100.00;63218.00;10422019;28;20212;-77
2022/12/09 09:53:51;;;;;;;14.63;10.23;;;;;;;-145.68;100.00;63218.00;10427637;28;20204;-79
2022/12/09 09:59:13;;;;;;;13.67;9.80;;;;;;;-145.68;100.00;63218.00;10439755;28;20260;-79
2022/12/09 10:04:29;;;;;;;15.83;9.77;;;;;;;-145.68;100.00;63218.00;10440658;28;20671;-77
2022/12/09 10:09:36;;;;;;;17.90;10.33;;;;;;;-145.68;100.00;63218.00;10452816;28;20276;-77
2022/12/09 10:14:45;;;;;;;9.50;6.30;;;;;;;-145.68;100.00;63218.00;10453943;28;20188;-78
2022/12/09 10:19:52;;;;;;;9.63;6.97;;;;;;;-145.68;100.00;63218.00;10452912;28;20184;-78
2022/12/09 10:24:58;;;;;;;10.97;6.80;;;;;;;-145.68;100.00;63218.00;10417953;28;20231;-78
2022/12/09 10:30:01;;;;;;;8.77;5.63;;;;;;;-145.68;100.00;63218.00;10434511;28;20302;-78
2022/12/09 10:35:12;;;;;;;11.03;7.53;;;;;;;-145.68;100.00;63218.00;10445124;28;20215;-78
2022/12/09 10:40:36;;;;;;;11.27;6.83;;;;;;;-145.68;100.00;63218.00;10419353;28;20196;-77
2022/12/09 10:45:54;;;;;;;12.53;7.90;;;;;;;-145.68;100.00;63218.00;10403332;28;20810;-79
2022/12/09 10:50:57;;;;;;;11.10;7.63;;;;;;;-145.68;100.00;63218.00;10394930;28;20247;-79
2022/12/09 10:55:58;;;;;;;13.00;7.73;;;;;;;-145.68;100.00;63218.00;10391452;28;20560;-78
2022/12/09 11:01:05;;;;;;;12.80;8.13;;;;;;;-145.68;100.00;63218.00;10433045;28;20556;-79
2022/12/09 11:06:30;;;;;;;12.90;8.77;;;;;;;-145.68;100.00;63218.00;10441824;28;20220;-78
2022/12/09 11:11:38;;;;;;;12.03;9.13;;;;;;;-145.68;100.00;63218.00;10449726;28;20195;-79
2022/12/09 11:16:39;;;;;;;17.07;10.03;;;;;;;-145.68;100.00;63218.00;10426629;28;20302;-77
2022/12/09 11:21:39;;;;;;;12.50;8.60;;;;;;;-145.68;100.00;63218.00;10449553;28;20196;-78
2022/12/09 11:26:40;;;;;;;13.07;8.30;;;;;;;-145.68;100.00;63218.00;10448268;28;20239;-78
2022/12/09 11:31:42;;;;;;;14.13;9.53;;;;;;;-145.68;100.00;63218.00;10448862;28;20192;-78
2022/12/09 11:36:47;;;;;;;11.50;8.13;;;;;;;-145.68;100.00;63218.00;10441616;28;20203;-78
2022/12/09 11:47:11;;;;;;;13.03;8.77;;;;;;;-145.68;100.00;63218.00;10407731;28;20665;-78
2022/12/09 11:52:17;;;;;;;10.57;7.30;;;;;;;-145.68;100.00;63218.00;10427014;28;20258;-78
2022/12/09 12:03:47;;;;;;;9.57;6.00;;;;;;;-145.68;100.00;63218.00;10380446;28;20199;-77
2022/12/09 12:09:05;;;;;;;7.63;4.93;;;;;;;-145.68;100.00;63218.00;10418114;28;20318;-76
2022/12/09 12:14:14;;;;;;;6.70;3.40;;;;;;;-145.68;100.00;63218.00;10429781;28;20191;-76
2022/12/09 12:19:21;;;;;;;9.50;5.63;;;;;;;-145.68;100.00;63218.00;10446959;28;20220;-79
2022/12/09 12:24:35;;;;;;;10.13;6.53;;;;;;;-145.68;100.00;63218.00;10428614;28;20335;-78
2022/12/09 12:29:47;;;;;;;9.43;5.97;;;;;;;-145.68;100.00;63218.00;10429108;28;20231;-78
2022/12/09 12:35:44;;;;;;;11.87;7.57;;;;;;;-145.68;100.00;63218.00;10401855;28;20655;-79
2022/12/09 12:41:02;;;;;;;16.00;7.63;;;;;;;-145.68;100.00;63218.00;10301699;28;20226;-79
2022/12/09 12:46:41;;;;;;;13.97;7.70;;;;;;;-145.68;100.00;63218.00;10345714;28;20844;-78
2022/12/09 12:52:02;;;;;;;14.00;8.73;;;;;;;-145.68;100.00;63218.00;10424661;28;20243;-77
2022/12/09 12:57:27;;;;;;;11.57;7.60;;;;;;;-145.68;100.00;63218.00;10389153;28;20200;-78
2022/12/09 13:02:40;;;;;;;12.47;7.63;;;;;;;-145.68;100.00;63218.00;10400150;28;20581;-77
2022/12/09 13:07:46;;;;;;;13.53;7.13;;;;;;;-145.68;100.00;63218.00;10410457;28;20709;-79
2022/12/09 13:12:52;;;;;;;10.67;6.90;;;;;;;-145.68;100.00;63218.00;10445758;28;20204;-79
2022/12/09 13:17:53;;;;;;;13.60;7.70;;;;;;;-145.68;100.00;63218.00;10413598;28;20634;-78
2022/12/09 13:23:23;;;;;;;11.50;7.43;;;;;;;-145.68;100.00;63218.00;10447744;28;20196;-79
2022/12/09 13:28:36;;;;;;;13.23;8.20;;;;;;;-145.68;100.00;63218.00;10394756;28;20286;-77
2022/12/09 13:34:11;;;;;;;17.37;12.17;;;;;;;-145.68;100.00;63218.00;10407897;28;20238;-78
2022/12/09 13:39:40;;;;;;;20.10;12.33;;;;;;;-145.68;100.00;63218.00;10376173;28;20227;-78
2022/12/09 13:44:40;;;;;;;21.70;13.37;;;;;;;-145.68;100.00;63218.00;10439349;28;20196;-78
2022/12/09 13:49:41;;;;;;;22.63;13.20;;;;;;;-145.68;100.00;63218.00;10413178;28;20232;-78
2022/12/09 13:54:46;;;;;;;21.67;14.03;;;;;;;-145.68;100.00;63218.00;10406660;28;20297;-78
2022/12/09 13:59:51;;;;;;;23.80;14.83;;;;;;;-145.68;100.00;63218.00;10432107;28;20240;-78
2022/12/09 14:05:18;;;;;;;24.43;15.00;;;;;;;-145.68;100.00;63218.00;10428190;28;20233;-76
2022/12/09 14:10:38;;;;;;;26.33;14.97;;;;;;;-145.68;100.00;63218.00;10395984;28;20230;-78
2022/12/09 14:15:39;;;;;;;27.73;14.77;;;;;;;-145.68;100.00;63218.00;10413113;28;20195;-78
2022/12/09 14:20:39;;;;;;;27.33;15.97;;;;;;;-145.68;100.00;63218.00;10455157;28;20194;-77
2022/12/09 14:25:55;;;;;;;27.23;15.10;;;;;;;-145.68;100.00;63218.00;10440685;28;20230;-79
2022/12/09 14:30:58;;;;;;;27.10;15.90;;;;;;;-145.68;100.00;63218.00;10426916;28;20229;-78
2022/12/09 14:36:13;;;;;;;27.90;16.13;;;;;;;-145.68;100.00;63218.00;10443738;28;20194;-78
2022/12/09 14:41:28;;;;;;;29.80;17.40;;;;;;;-145.68;100.00;63218.00;10466040;28;20203;-77
2022/12/09 14:46:34;;;;;;;29.20;16.97;;;;;;;-145.68;100.00;63218.00;10437548;28;20234;-78
2022/12/09 14:51:36;;;;;;;30.77;17.50;;;;;;;-145.68;100.00;63218.00;10408390;28;20221;-78
2022/12/09 14:56:37;;;;;;;29.00;15.60;;;;;;;-145.68;100.00;63218.00;10434390;28;20205;-78
2022/12/09 15:01:58;;;;;;;26.53;15.70;;;;;;;-145.68;100.00;63218.00;10409487;28;20715;-79
2022/12/09 15:07:19;;;;;;;26.03;15.53;;;;;;;-145.68;100.00;63218.00;10413492;28;20230;-78
2022/12/09 15:12:23;;;;;;;26.10;15.33;;;;;;;-145.68;100.00;63218.00;10408483;28;20681;-78
2022/12/09 15:17:27;;;;;;;26.57;15.73;;;;;;;-145.68;100.00;63218.00;10415564;28;20552;-80
2022/12/09 15:22:30;;;;;;;27.53;15.77;;;;;;;-145.68;100.00;63218.00;10431550;28;20678;-78
2022/12/09 15:27:30;;;;;;;29.77;16.07;;;;;;;-145.68;100.00;63218.00;10422685;28;20952;-78
2022/12/09 15:32:32;;;;;;;26.40;15.97;;;;;;;-145.68;100.00;63218.00;10408877;28;20212;-78
2022/12/09 15:37:32;;;;;;;26.27;15.57;;;;;;;-145.68;100.00;63218.00;10431765;28;20683;-78
2022/12/09 15:42:35;;;;;;;28.50;16.53;;;;;;;-145.68;100.00;63218.00;10430665;28;20938;-78
2022/12/09 15:47:38;;;;;;;34.30;17.53;;;;;;;-145.68;100.00;63218.00;10422672;28;20271;-78
2022/12/09 15:52:42;;;;;;;26.40;15.93;;;;;;;-145.68;100.00;63218.00;10423193;28;20878;-78
2022/12/09 15:57:43;;;;;;;32.77;17.57;;;;;;;-145.68;100.00;63218.00;10414080;28;20272;-78
2022/12/09 16:02:45;;;;;;;29.50;17.13;;;;;;;-145.68;100.00;63218.00;10419235;28;20192;-78
2022/12/09 16:07:58;;;;;;;29.43;17.93;;;;;;;-145.68;100.00;63218.00;10418675;28;20997;-78
2022/12/09 16:13:10;;;;;;;29.30;16.70;;;;;;;-145.68;100.00;63218.00;10389172;28;20670;-78
2022/12/09 16:18:19;;;;;;;27.97;16.83;;;;;;;-145.68;100.00;63218.00;10421113;28;20190;-79
2022/12/09 16:23:22;;;;;;;33.63;18.07;;;;;;;-145.68;100.00;63218.00;10426648;28;20183;-80
2022/12/09 16:28:24;;;;;;;27.57;16.37;;;;;;;-145.68;100.00;63218.00;10418203;28;20603;-80
2022/12/09 16:33:38;;;;;;;29.43;17.17;;;;;;;-145.68;100.00;63218.00;10423407;28;20207;-80
2022/12/09 16:38:38;;;;;;;29.17;17.20;;;;;;;-145.68;100.00;63218.00;10444934;28;20215;-79
2022/12/09 16:43:52;;;;;;;28.20;17.30;;;;;;;-145.68;100.00;63218.00;10440913;28;20226;-79
2022/12/09 16:48:52;;;;;;;32.10;19.37;;;;;;;-145.68;100.00;63218.00;10445868;28;20244;-79
2022/12/09 16:53:53;;;;;;;32.50;18.40;;;;;;;-145.68;100.00;63218.00;10441334;28;20297;-79
2022/12/09 16:58:54;;;;;;;31.30;18.10;;;;;;;-145.68;100.00;63218.00;10454800;28;20554;-79
2022/12/09 17:04:00;;;;;;;38.80;19.90;;;;;;;-145.68;100.00;63218.00;10432475;28;20209;-79
2022/12/09 17:09:00;;;;;;;38.00;20.90;;;;;;;-145.68;100.00;63218.00;10401727;28;20234;-79
2022/12/09 17:14:00;;;;;;;31.37;18.33;;;;;;;-145.68;100.00;63218.00;10422085;28;20187;-79
2022/12/09 17:19:02;;;;;;;37.10;20.77;;;;;;;-145.68;100.00;63218.00;10453415;28;20252;-79
2022/12/09 17:24:03;;;;;;;33.50;19.30;;;;;;;-145.68;100.00;63218.00;10450571;28;20235;-79
2022/12/09 17:29:03;;;;;;;34.87;20.33;;;;;;;-145.68;100.00;63218.00;10401917;28;20219;-79
2022/12/09 17:34:03;;;;;;;36.83;20.50;;;;;;;-145.68;100.00;63218.00;10422373;28;20262;-79
2022/12/09 17:39:06;;;;;;;37.50;21.20;;;;;;;-145.68;100.00;63218.00;10418951;28;20218;-79
2022/12/09 17:44:06;;;;;;;36.10;21.20;;;;;;;-145.68;100.00;63218.00;10422302;28;20198;-79
2022/12/09 17:49:07;;;;;;;41.80;21.67;;;;;;;-145.68;100.00;63218.00;10417911;28;20235;-79
2022/12/09 17:54:07;;;;;;;35.67;21.27;;;;;;;-145.68;100.00;63218.00;10421025;28;20643;-79
2022/12/09 17:59:13;;;;;;;34.00;20.03;;;;;;;-145.68;100.00;63218.00;10417420;28;20201;-79
2022/12/09 18:04:14;;;;;;;35.13;21.43;;;;;;;-145.68;100.00;63218.00;10421836;28;20196;-79
2022/12/09 18:09:16;;;;;;;32.93;20.57;;;;;;;-145.68;100.00;63218.00;10397462;28;20231;-79
2022/12/09 18:14:17;;;;;;;40.40;22.40;;;;;;;-145.68;100.00;63218.00;10418385;28;20282;-79
2022/12/09 18:19:19;;;;;;;37.97;20.37;;;;;;;-145.68;100.00;63218.00;10450479;28;20227;-79
2022/12/09 18:24:20;;;;;;;42.70;23.87;;;;;;;-145.68;100.00;63218.00;10447140;28;20223;-79
2022/12/09 18:29:20;;;;;;;45.20;23.03;;;;;;;-145.68;100.00;63218.00;10415149;28;20219;-79
2022/12/09 18:34:25;;;;;;;41.23;22.60;;;;;;;-145.68;100.00;63218.00;10426275;28;20195;-79
2022/12/09 18:39:25;;;;;;;37.67;22.73;;;;;;;-145.68;100.00;63218.00;10414080;28;20224;-79
2022/12/09 18:44:26;;;;;;;35.20;21.97;;;;;;;-145.68;100.00;63218.00;10417951;28;20200;-79
2022/12/09 18:49:27;;;;;;;37.93;22.50;;;;;;;-145.68;100.00;63218.00;10449802;28;20787;-79
2022/12/09 18:54:31;;;;;;;40.40;23.20;;;;;;;-145.68;100.00;63218.00;10446414;28;20273;-79
2022/12/09 18:59:31;;;;;;;37.97;22.80;;;;;;;-145.68;100.00;63218.00;10413426;28;20209;-79
2022/12/09 19:04:31;;;;;;;40.10;22.43;;;;;;;-145.68;100.00;63218.00;10419437;28;20665;-79
2022/12/09 19:09:33;;;;;;;77.23;35.23;;;;;;;-145.68;100.00;63218.00;10413464;28;20699;-79
2022/12/09 19:14:37;;;;;;;43.90;24.63;;;;;;;-145.68;100.00;63218.00;10418746;28;20192;-79
2022/12/09 19:19:38;;;;;;;42.03;22.43;;;;;;;-145.68;100.00;63218.00;10404823;28;20304;-79
2022/12/09 19:24:39;;;;;;;40.07;22.07;;;;;;;-145.68;100.00;63218.00;10418506;28;20231;-79
2022/12/09 19:29:39;;;;;;;35.90;21.37;;;;;;;-145.68;100.00;63218.00;10412896;28;20220;-79
2022/12/09 19:34:40;;;;;;;44.83;25.57;;;;;;;-145.68;100.00;63218.00;10417870;28;20200;-79
2022/12/09 19:39:42;;;;;;;42.53;25.93;;;;;;;-145.68;100.00;63218.00;10450300;28;20248;-79
2022/12/09 19:44:42;;;;;;;42.23;23.37;;;;;;;-145.68;100.00;63218.00;10442564;28;20200;-79
2022/12/09 19:49:43;;;;;;;43.13;24.20;;;;;;;-145.68;100.00;63218.00;10439217;28;20286;-79
2022/12/09 19:54:43;;;;;;;38.83;23.97;;;;;;;-145.68;100.00;63218.00;10409607;28;20210;-79
2022/12/09 19:59:46;;;;;;;41.93;24.73;;;;;;;-145.68;100.00;63218.00;10415753;28;20199;-79
2022/12/09 20:04:46;;;;;;;42.40;24.47;;;;;;;-145.68;100.00;63218.00;10412708;28;20212;-79
2022/12/09 20:09:47;;;;;;;36.10;21.50;;;;;;;-145.68;100.00;63218.00;10415394;28;20236;-79
2022/12/09 20:14:47;;;;;;;36.90;22.87;;;;;;;-145.68;100.00;63218.00;10412552;28;20202;-79
2022/12/09 20:19:48;;;;;;;42.20;24.13;;;;;;;-145.68;100.00;63218.00;10414891;28;20191;-79
2022/12/09 20:24:48;;;;;;;47.53;24.10;;;;;;;-145.68;100.00;63218.00;10412777;28;20239;-79
2022/12/09 20:29:48;;;;;;;44.37;24.20;;;;;;;-145.68;100.00;63218.00;10413123;28;20214;-79
2022/12/09 20:34:50;;;;;;;39.63;22.23;;;;;;;-145.68;100.00;63218.00;10442068;28;20254;-78
2022/12/09 20:39:50;;;;;;;42.70;23.67;;;;;;;-145.68;100.00;63218.00;10443522;28;20200;-79
2022/12/09 20:44:50;;;;;;;41.70;23.33;;;;;;;-145.68;100.00;63218.00;10441750;28;20199;-79
2022/12/09 20:49:51;;;;;;;40.10;22.67;;;;;;;-145.68;100.00;63218.00;10445780;28;20219;-79
2022/12/09 20:54:51;;;;;;;41.37;22.90;;;;;;;-145.68;100.00;63218.00;10423766;28;20195;-79
2022/12/09 20:59:52;;;;;;;98.57;48.43;;;;;;;-145.68;100.00;63218.00;10442226;28;20192;-79
2022/12/09 21:04:52;;;;;;;58.40;32.80;;;;;;;-145.68;100.00;63218.00;10448800;28;20218;-79
2022/12/09 21:09:52;;;;;;;90.00;42.10;;;;;;;-145.68;100.00;63218.00;10445493;28;20214;-79
2022/12/09 21:14:53;;;;;;;224.10;102.47;;;;;;;-145.68;100.00;63218.00;10439667;28;20224;-79
2022/12/09 21:19:53;;;;;;;115.63;57.00;;;;;;;-145.68;100.00;63218.00;10441989;28;20193;-79
2022/12/09 21:24:54;;;;;;;126.00;54.37;;;;;;;-145.68;100.00;63218.00;10414433;28;20610;-77
2022/12/09 21:29:54;;;;;;;89.13;45.03;;;;;;;-145.68;100.00;63218.00;10409064;28;20282;-78
2022/12/09 21:34:56;;;;;;;91.03;44.27;;;;;;;-145.68;100.00;63218.00;10415767;28;20281;-78
2022/12/09 21:39:57;;;;;;;84.67;39.47;;;;;;;-145.68;100.00;63218.00;10411093;28;20211;-78
2022/12/09 21:44:57;;;;;;;82.80;42.30;;;;;;;-145.68;100.00;63218.00;10422677;28;20196;-79
2022/12/09 21:49:58;;;;;;;73.17;36.83;;;;;;;-145.68;100.00;63218.00;10419643;28;20679;-78
2022/12/09 21:54:58;;;;;;;91.63;45.23;;;;;;;-145.68;100.00;63218.00;10446355;28;20303;-79
2022/12/09 21:59:59;;;;;;;128.57;58.77;;;;;;;-145.68;100.00;63218.00;10452052;28;20222;-78
2022/12/09 22:11:24;;;;;;;72.20;39.50;;;;;;;-145.68;100.00;63218.00;10417355;28;20200;-79
2022/12/09 22:16:28;;;;;;;53.07;29.13;;;;;;;-145.68;100.00;63218.00;10396449;28;20195;-79
2022/12/09 22:21:29;;;;;;;63.33;31.80;;;;;;;-145.68;100.00;63218.00;10420019;28;20197;-78
2022/12/09 22:26:30;;;;;;;72.70;36.27;;;;;;;-145.68;100.00;63218.00;10419781;28;20286;-78
2022/12/09 22:31:34;;;;;;;104.73;46.60;;;;;;;-145.68;100.00;63218.00;10430618;28;20286;-79
2022/12/09 22:36:35;;;;;;;57.57;31.13;;;;;;;-145.68;100.00;63218.00;10413599;28;20215;-79
2022/12/09 22:41:36;;;;;;;57.30;28.90;;;;;;;-145.68;100.00;63218.00;10406217;28;20227;-79
2022/12/09 22:46:36;;;;;;;51.70;26.37;;;;;;;-145.68;100.00;63218.00;10413304;28;20287;-79